Terminal Aerodrome Forecast
Issued by NWS

Home | Current Version | Previous Version | Text Only | Print | Product List | Glossary On
Versions: 1 2 3 4 5 6 7 8 9 10 11 12 13 14 15 16
000
FTUS43 KMKX 181125
TAFUES
TAF
KUES 181125Z 1812/1912 21007KT P6SM SKC
     FM181500 20011G20KT P6SM SKC
     FM190000 21011KT P6SM FEW250 WS020/22045KT
     FM190500 24009KT P6SM FEW035 WS020/24045KT
     FM190600 24008KT P6SM FEW035 WS020/27040KT
     FM190800 26005KT P6SM FEW250=

USA.gov is the U.S. government's official web portal to all federal, state and local government web resources and services.